map of CJJ home
CJJ - Airport
Location
City:  Cheong Ju, Republic of Korea (South Korea)
Name:Cheong Ju International Airport
ICAO:RKTU
IATA:CJJ

Details
Type:Airport (Aerodrome, Airfield)
Use:Public/Civil, Military, International (customs port of entry)
Latitude:36°43'00"N (36.716600)
Longitude:127°29'57"E (127.499119)
Datum:WGS 1984
Elevation:191 ft (58 m)
Variation:8.37°W (WMM2015v2 magnetic declination)
-0.08° annual change
Runways:2
Longest:9000 × 200 ft (2743 × 61 m), paved

Time
Time Zone:UTC+9
Local Time:

Weather
METAR:RKTU 041400Z 06002KT CAVOK M03/M07 Q1026
TAF:RKTU 041100Z 0412/0518 27006KT 9999 SCT030 BKN200 TNM08/0421Z TX07/0506Z

Related Locations
Nearby:
Farthest:SUPE: 12252 mi / 19718 km
Punta el Este [El Jagüel Airport], MA, UY

Find:

   beyond  
but within

Other Information
Maps:
NOTAMs:
Links:
Sources:

  
  • flag of Republic of Korea (South Korea)
  

Sectional Chart

Flight Planning
at skyvector.com

Satellite Image

Google Maps Satellite view

 

Copyright © 2004-2019 Karl L. Swartz. All rights reserved.
The Great Circle Mapper name and logo are trademarks of the Great Circle Mapper.
All other trademarks mentioned herein belong to their respective owners.
Please see credits for attibutions and further copyright information.

  Follow gcmap on Facebook Follow gcmap on Twitter GCmap on LinkedIn

hCard Microformat

Geo Microformat